Bangkok (Don Mueang), Thailand

1:12 PM ICT on August 25, 2016 (GMT +0700)
Soi Ekkarat 15/2 | | Change Station

Elev 19 ft 13.96 °N, 100.60 °E | Updated 2 minutes ago

Scattered Clouds
Scattered Clouds
89.4 °F
Feels Like 105 °F
N
4.3
Wind Variable Wind from WSW
Gusts 11.8 mph

Today
High -- | Low -- °F
--% Chance of Precip.
Yesterday
High -- | Low -- °F
Precip. -- in
Pressure 29.65 in
Visibility 6.2 miles
Clouds Scattered Clouds 2500 ft
Heat Index 105 °F
Dew Point 79 °F
Humidity 72%
Rainfall 0.00 in
Snow Depth Not available.
6:05 AM 6:33 PM
Waning Gibbous, 49% visible
METAR VTBD 250600Z 34008KT 300V020 9999 SCT025 32/26 Q1004 NOSIG
Pressure 29.65 in
Visibility 6.2 miles
Clouds Scattered Clouds 2500 ft
Heat Index 105 °F
Dew Point 79 °F
Humidity 72%
Rainfall 0.00 in
Snow Depth Not available.
6:05 AM 6:33 PM
Waning Gibbous, 49% visible
METAR VTBD 250600Z 34008KT 300V020 9999 SCT025 32/26 Q1004 NOSIG

10-Day Weather Forecast

No radar image for this location.
×

Almanac

Astronomy

Aug. 25, 2016 Rise Set
Actual Time
Civil Twilight
Nautical Twilight
Astronomical Twilight
Moon
Length of Visible Light
Length of Day
Tomorrow will be .
, % of the Moon is Illuminated

Today's Extremes

Country Highs Country Lows

Community

WunderPhotos

Upload Photos

1,934,803 photos uploaded!

WunderBlog® & News

Nearby

Air Quality

  Air Quality AQ Index Pollutant
Not available.

Snow Depth

Station Depth Elevation

Earthquake Activity

City Distance Mag. Time & Date
Minimum magnitude displayed is 2.5.

Coastal Water Temperatures

Place Temperature

Stations

Nearby Weather Stations

Station Location Temp. Windchill Dew Point Humidity Wind Precip. Elev Updated Type